»·PEaware :: N17TE KJFK-KEWR

N17TE :: KJFK-KEWR

FLIGHT INFORMATION

Flight Status: Arrived
Operator: Privately registered:
United States
More flights under this callsign
Pilot: Nolan D. (4721)
Aircraft: CANADAIR CL-600 CHALLENGER
(CL60)
More flights by this aircraft type
Origin: KJFK Kennedy Intl
United States
Destination: KEWR Newark Intl
United States
More flights between these airports :: More routes between these airports
Route: JFK5 V16 DIXIE V276 RBV V249 SBJ
File this flight plan on PilotEdge
Remarks:
Altitude:
(Current/Filed)
6,000ft
Speed:
(Current/Filed)
350kts
Departed: 03-Dec-22 06:47 AM
Arrived: 03-Dec-22 07:23 AM
Distance/Time
Traveled:
18nm/0:36
Distance/Time
To Go:
Arrived

Flight Plot

Page will automatically refresh every two minutes.

Flight plan parsing failed; only flown route is shown


Map Options




Map Legend


Flown Route
Filed Route
Departure Airport
Arrival Airport
Navaid (VOR, NDB)
Fix

Horizontal Profiles

Position Reports

Time Latitude Longitude Heading Altitude Ground
Speed
03-Dec-22 06:31 40.648994 -73.810364 28 14ft 0kts
03-Dec-22 06:32 40.648994 -73.810364 28 14ft 0kts
03-Dec-22 06:33 40.648994 -73.810364 28 14ft 0kts
03-Dec-22 06:34 40.648994 -73.810364 28 14ft 0kts
03-Dec-22 06:35 40.648994 -73.810364 28 14ft 0kts
03-Dec-22 06:36 40.648994 -73.810364 28 14ft 0kts
03-Dec-22 06:37 40.648994 -73.810364 28 14ft 0kts
03-Dec-22 06:38 40.648994 -73.810364 28 14ft 0kts
03-Dec-22 06:39 40.648994 -73.810364 28 14ft 0kts
03-Dec-22 06:40 40.648994 -73.810364 28 14ft 0kts
03-Dec-22 06:41 40.648994 -73.810364 28 14ft 0kts
03-Dec-22 06:42 40.649116 -73.810328 351 14ft 5kts
03-Dec-22 06:43 40.649221 -73.813136 216 14ft 12kts
03-Dec-22 06:44 40.648226 -73.813875 214 14ft 0kts
03-Dec-22 06:45 40.647949 -73.814124 213 14ft 9kts
03-Dec-22 06:46 40.645278 -73.809934 122 15ft 114kts
03-Dec-22 06:47 40.612503 -73.765677 140 1418ft 208kts
03-Dec-22 06:48 40.557654 -73.717811 146 4703ft 270kts
03-Dec-22 06:49 40.499562 -73.707790 209 5079ft 267kts
03-Dec-22 06:50 40.441739 -73.770361 221 5016ft 268kts
03-Dec-22 06:51 40.385132 -73.835904 221 5929ft 273kts
03-Dec-22 06:52 40.327113 -73.902925 221 5998ft 272kts
03-Dec-22 06:53 40.269508 -73.969286 221 6000ft 272kts
03-Dec-22 06:54 40.214465 -74.038039 245 5923ft 274kts
03-Dec-22 06:55 40.235558 -74.128872 297 4689ft 266kts
03-Dec-22 06:56 40.269537 -74.214889 297 4005ft 263kts
03-Dec-22 06:57 40.317988 -74.263135 355 3470ft 226kts
03-Dec-22 06:58 40.378204 -74.268949 356 3008ft 215kts
03-Dec-22 06:59 40.439193 -74.273152 357 2987ft 218kts
03-Dec-22 07:00 40.500375 -74.277087 358 2985ft 218kts
03-Dec-22 07:01 40.551190 -74.254216 26 2853ft 176kts
03-Dec-22 07:02 40.593172 -74.227789 24 1939ft 175kts
03-Dec-22 07:03 40.636974 -74.200114 25 1035ft 172kts
03-Dec-22 07:04 40.680061 -74.173192 25 1998ft 174kts
03-Dec-22 07:05 40.721566 -74.116759 47 2989ft 229kts
03-Dec-22 07:06 40.770210 -74.089423 330 3038ft 212kts
03-Dec-22 07:07 40.785881 -74.163068 254 3027ft 225kts
03-Dec-22 07:08 40.773822 -74.244872 245 2980ft 229kts
03-Dec-22 07:09 40.726383 -74.296966 217 3012ft 209kts
03-Dec-22 07:10 40.679737 -74.343461 217 3002ft 209kts
03-Dec-22 07:11 40.633282 -74.390136 217 2994ft 208kts
03-Dec-22 07:12 40.586544 -74.435947 209 2963ft 209kts
03-Dec-22 07:13 40.531014 -74.420408 157 3024ft 208kts
03-Dec-22 07:14 40.477315 -74.390582 156 3026ft 208kts
03-Dec-22 07:15 40.447857 -74.339087 58 3010ft 205kts
03-Dec-22 07:16 40.489642 -74.294308 26 3004ft 187kts
03-Dec-22 07:17 40.536073 -74.263522 28 2933ft 187kts
03-Dec-22 07:18 40.582818 -74.233589 26 2088ft 186kts
03-Dec-22 07:19 40.622803 -74.208676 23 1274ft 132kts
03-Dec-22 07:20 40.654609 -74.188681 27 606ft 126kts
03-Dec-22 07:21 40.685961 -74.169021 24 23ft 112kts
03-Dec-22 07:22 40.696161 -74.162989 355 14ft 0kts
03-Dec-22 07:26 40.699060 -74.165748 291 14ft 0kts
03-Dec-22 07:27 40.701392 -74.164718 1 14ft 19kts
03-Dec-22 07:28 40.703890 -74.168108 0 14ft 16kts
03-Dec-22 07:29 40.705550 -74.169774 11 14ft 0kts
03-Dec-22 07:30 40.705550 -74.169774 11 14ft 0kts
03-Dec-22 07:31 40.705550 -74.169774 11 14ft 0kts
03-Dec-22 07:32 40.705550 -74.169774 11 14ft 0kts
03-Dec-22 07:33 40.705550 -74.169774 11 14ft 0kts
03-Dec-22 07:34 40.705550 -74.169774 11 14ft 0kts
03-Dec-22 07:35 40.705550 -74.169774 11 14ft 0kts
03-Dec-22 07:36 40.705550 -74.169774 11 14ft 0kts

Navigation Log

Ident Type
Flight plan parsing failed, navigation log unavailable